createdAt,value
2023-04-21T00:00:40.648Z,84.31
2023-04-21T00:03:44.256Z,84.65
2023-04-21T00:06:46.898Z,85.36
2023-04-21T00:09:51.148Z,85.43
2023-04-21T00:12:53.828Z,85.14
2023-04-21T00:15:56.468Z,85.45
2023-04-21T00:18:59.278Z,85.14
2023-04-21T00:22:01.772Z,85.35
2023-04-21T00:25:06.879Z,85.36
2023-04-21T00:28:09.458Z,85.62
2023-04-21T00:31:12.053Z,84.86
2023-04-21T00:34:14.670Z,84.90
2023-04-21T00:37:17.269Z,84.75
2023-04-21T00:40:21.476Z,84.76
2023-04-21T00:43:25.735Z,84.35
2023-04-21T00:46:28.380Z,85.12
2023-04-21T00:49:30.985Z,84.76
2023-04-21T00:52:34.540Z,85.55
2023-04-21T00:55:38.392Z,85.29
2023-04-21T00:58:41.131Z,85.10
2023-04-21T01:01:44.430Z,85.53
2023-04-21T01:04:47.067Z,85.75
2023-04-21T01:07:50.342Z,85.21
2023-04-21T01:10:54.252Z,85.63
2023-04-21T01:13:56.652Z,85.76
2023-04-21T01:16:59.473Z,85.49
2023-04-21T01:20:03.266Z,85.95
2023-04-21T01:23:07.175Z,86.08
2023-04-21T01:26:09.832Z,85.85
2023-04-21T01:29:12.347Z,86.02
2023-04-21T01:32:16.970Z,86.26
2023-04-21T01:35:19.674Z,85.82
2023-04-21T01:38:23.824Z,86.05
2023-04-21T01:41:26.457Z,86.16
2023-04-21T01:44:28.985Z,85.99
2023-04-21T01:47:31.623Z,86.67
2023-04-21T01:50:34.193Z,87.19
2023-04-21T01:53:38.059Z,86.15
2023-04-21T01:56:40.558Z,85.53
2023-04-21T01:59:43.175Z,85.33
2023-04-21T02:02:45.767Z,85.92
2023-04-21T02:05:48.385Z,86.74
2023-04-21T02:08:52.341Z,86.87
2023-04-21T02:11:57.072Z,87.08
2023-04-21T02:14:59.848Z,87.03
2023-04-21T02:18:02.481Z,86.59
2023-04-21T02:21:05.516Z,86.55
2023-04-21T02:24:09.521Z,86.74
2023-04-21T02:27:12.030Z,86.19
2023-04-21T02:30:14.787Z,86.18
2023-04-21T02:33:17.392Z,86.36
2023-04-21T02:36:19.931Z,86.18
2023-04-21T02:39:23.784Z,86.25
2023-04-21T02:42:26.294Z,86.35
2023-04-21T02:45:28.703Z,86.88
2023-04-21T02:48:31.363Z,86.84
2023-04-21T02:51:33.826Z,87.12
2023-04-21T02:54:37.718Z,87.04
2023-04-21T02:57:40.091Z,86.81
2023-04-21T03:00:42.646Z,86.50
2023-04-21T03:03:45.354Z,86.17
2023-04-21T03:06:48.024Z,86.39
2023-04-21T03:09:51.887Z,86.40
2023-04-21T03:12:55.980Z,86.67
2023-04-21T03:15:58.526Z,86.79
2023-04-21T03:19:01.167Z,86.59
2023-04-21T03:22:04.097Z,86.20
2023-04-21T03:25:08.617Z,86.75
2023-04-21T03:28:11.283Z,86.96
2023-04-21T03:31:13.773Z,86.71
2023-04-21T03:34:16.445Z,86.70
2023-04-21T03:37:18.978Z,86.83
2023-04-21T03:40:23.195Z,86.82
2023-04-21T03:43:25.683Z,86.78
2023-04-21T03:46:28.414Z,86.65
2023-04-21T03:49:31.676Z,87.00
2023-04-21T03:52:34.364Z,86.64
2023-04-21T03:55:38.424Z,86.90
2023-04-21T03:58:41.030Z,86.79
2023-04-21T04:01:43.739Z,87.30
2023-04-21T04:04:46.267Z,87.47
2023-04-21T04:07:48.807Z,87.61
2023-04-21T04:10:52.632Z,87.31
2023-04-21T04:13:54.969Z,87.46
2023-04-21T04:16:57.517Z,87.46
2023-04-21T04:20:00.151Z,86.90
2023-04-21T04:23:02.636Z,86.98
2023-04-21T04:26:06.640Z,87.22
2023-04-21T04:29:10.598Z,86.94
2023-04-21T04:32:13.568Z,86.90
2023-04-21T04:35:16.386Z,86.84
2023-04-21T04:38:19.308Z,86.78
2023-04-21T04:41:24.149Z,86.98
2023-04-21T04:44:26.805Z,86.86
2023-04-21T04:47:29.664Z,87.14
2023-04-21T04:50:32.437Z,86.48
2023-04-21T04:53:34.933Z,86.89
2023-04-21T04:56:39.341Z,86.68
2023-04-21T04:59:41.841Z,86.98
2023-04-21T05:02:44.734Z,86.97
2023-04-21T05:05:47.513Z,86.93
2023-04-21T05:08:49.995Z,86.15
2023-04-21T05:11:53.862Z,86.47
2023-04-21T05:14:56.478Z,85.83
2023-04-21T05:17:59.024Z,85.13
2023-04-21T05:21:01.600Z,82.79
2023-04-21T05:24:04.218Z,83.67
2023-04-21T05:27:08.076Z,83.94
2023-04-21T05:30:11.613Z,83.85
2023-04-21T05:33:14.339Z,83.09
2023-04-21T05:36:17.077Z,83.07
2023-04-21T05:39:19.791Z,83.08
2023-04-21T05:42:23.720Z,82.81
2023-04-21T05:45:26.366Z,83.02
2023-04-21T05:48:29.660Z,83.07
2023-04-21T05:51:32.625Z,82.80
2023-04-21T05:54:35.189Z,81.37
2023-04-21T05:57:39.107Z,81.98
2023-04-21T06:00:41.602Z,81.66
2023-04-21T06:03:44.405Z,81.66
2023-04-21T06:06:46.949Z,80.58
2023-04-21T06:09:51.855Z,79.87
2023-04-21T06:12:55.755Z,78.89
2023-04-21T06:15:58.537Z,75.91
2023-04-21T06:19:01.369Z,74.18
2023-04-21T06:22:04.110Z,73.38
2023-04-21T06:25:07.414Z,71.71
2023-04-21T06:28:11.232Z,72.41
2023-04-21T06:31:15.573Z,72.17
2023-04-21T06:34:20.194Z,73.52
2023-04-21T06:37:22.934Z,69.72
2023-04-21T06:40:25.526Z,67.00
2023-04-21T06:43:29.537Z,67.79
2023-04-21T06:46:32.145Z,67.29
2023-04-21T06:49:35.045Z,68.89
2023-04-21T06:52:37.565Z,69.62
2023-04-21T06:55:40.155Z,70.70
2023-04-21T06:58:44.012Z,71.01
2023-04-21T07:01:48.947Z,71.24
2023-04-21T07:04:51.602Z,70.44
2023-04-21T07:07:56.848Z,70.07
2023-04-21T07:10:59.429Z,69.45
2023-04-21T07:14:03.306Z,69.11
2023-04-21T07:17:06.236Z,68.90
2023-04-21T07:20:10.072Z,69.36
2023-04-21T07:23:12.509Z,68.79
2023-04-21T07:26:15.092Z,67.57
2023-04-21T07:29:19.369Z,67.53
2023-04-21T07:32:22.378Z,66.43
2023-04-21T07:35:25.123Z,64.78
2023-04-21T07:38:27.640Z,63.44
2023-04-21T07:41:30.232Z,60.40
2023-04-21T07:44:34.136Z,59.50
2023-04-21T07:47:36.855Z,57.65
2023-04-21T07:50:39.582Z,56.43
2023-04-21T07:53:42.186Z,56.85
2023-04-21T07:56:44.718Z,56.61
2023-04-21T07:59:48.677Z,56.45
2023-04-21T08:02:51.319Z,57.06
2023-04-21T08:05:54.251Z,57.82
2023-04-21T08:08:56.953Z,56.88
2023-04-21T08:11:59.547Z,56.07
2023-04-21T08:15:05.863Z,55.73
2023-04-21T08:18:09.655Z,56.28
2023-04-21T08:21:12.634Z,56.65
2023-04-21T08:24:15.184Z,56.11
2023-04-21T08:27:17.764Z,55.54
2023-04-21T08:30:21.699Z,56.29
2023-04-21T08:33:24.302Z,57.85
2023-04-21T08:36:29.739Z,58.48
2023-04-21T08:39:32.925Z,60.18
2023-04-21T08:42:36.848Z,58.46
2023-04-21T08:45:41.216Z,58.41
2023-04-21T08:48:43.845Z,57.84
2023-04-21T08:51:47.164Z,57.67
2023-04-21T08:54:52.867Z,58.19
2023-04-21T08:57:55.395Z,57.31
2023-04-21T09:00:59.386Z,56.96
2023-04-21T09:04:17.542Z,57.83
2023-04-21T09:07:32.477Z,57.91
2023-04-21T09:10:35.325Z,56.66
2023-04-21T09:13:38.187Z,56.90
2023-04-21T09:16:44.540Z,55.38
2023-04-21T09:19:47.125Z,55.52
2023-04-21T09:22:51.137Z,54.96
2023-04-21T09:25:55.340Z,54.87
2023-04-21T09:28:57.977Z,54.20
2023-04-21T09:32:02.736Z,53.45
2023-04-21T09:35:06.402Z,52.46
2023-04-21T09:38:11.935Z,52.37
2023-04-21T09:41:18.066Z,52.24
2023-04-21T09:44:21.572Z,51.55
2023-04-21T09:47:28.308Z,50.96
2023-04-21T09:53:40.572Z,51.54
2023-04-21T09:56:44.486Z,50.79
2023-04-21T09:59:47.809Z,51.97
2023-04-21T10:02:52.503Z,51.74
2023-04-21T10:05:55.210Z,51.63
2023-04-21T10:08:58.791Z,51.24
2023-04-21T10:12:02.710Z,50.58
2023-04-21T10:15:06.409Z,50.62
2023-04-21T10:18:15.374Z,51.37
2023-04-21T10:21:21.810Z,49.95
2023-04-21T10:24:24.455Z,50.18
2023-04-21T10:27:34.443Z,50.45
2023-04-21T10:30:37.370Z,49.87
2023-04-21T10:33:42.041Z,49.57
2023-04-21T10:36:50.507Z,49.94
2023-04-21T10:39:54.608Z,51.07
2023-04-21T10:42:57.287Z,49.99
2023-04-21T10:45:59.851Z,50.02
2023-04-21T10:49:11.580Z,51.12
2023-04-21T10:52:16.395Z,50.22
2023-04-21T10:55:19.298Z,50.02
2023-04-21T10:58:24.300Z,50.40
2023-04-21T11:01:26.891Z,50.29
2023-04-21T11:04:32.047Z,50.32
2023-04-21T11:07:34.874Z,50.91
2023-04-21T11:10:53.068Z,50.13
2023-04-21T11:13:55.577Z,49.46
2023-04-21T11:16:58.230Z,49.84
2023-04-21T11:20:04.044Z,49.03
2023-04-21T11:23:06.599Z,49.22
2023-04-21T11:26:09.221Z,47.40
2023-04-21T11:29:12.763Z,49.17
2023-04-21T11:32:16.225Z,48.47
2023-04-21T11:35:20.189Z,47.86
2023-04-21T11:38:23.266Z,47.58
2023-04-21T11:41:26.488Z,47.63
2023-04-21T11:44:33.924Z,47.74
2023-04-21T11:47:37.689Z,47.26
2023-04-21T11:50:41.610Z,47.38
2023-04-21T11:53:44.212Z,47.53
2023-04-21T11:56:48.565Z,46.29
2023-04-21T11:59:51.480Z,45.90
2023-04-21T12:02:58.597Z,45.90
2023-04-21T12:06:02.768Z,45.15
2023-04-21T12:09:05.315Z,45.55
2023-04-21T12:12:08.313Z,47.09
2023-04-21T12:15:12.739Z,46.64
2023-04-21T12:18:15.900Z,46.07
2023-04-21T12:21:19.788Z,45.56
2023-04-21T12:24:22.351Z,45.55
2023-04-21T12:27:25.022Z,45.60
2023-04-21T12:30:27.680Z,44.39
2023-04-21T12:33:30.426Z,44.06
2023-04-21T12:36:36.409Z,43.17
2023-04-21T12:39:39.189Z,43.38
2023-04-21T12:42:42.035Z,42.10
2023-04-21T12:45:44.689Z,41.74
2023-04-21T12:48:48.739Z,41.49
2023-04-21T12:51:52.598Z,30.31
2023-04-21T12:54:55.951Z,22.16
2023-04-21T12:57:58.875Z,18.67
2023-04-21T13:01:01.817Z,16.85
2023-04-21T13:04:04.980Z,15.41
2023-04-21T13:07:09.006Z,16.11
2023-04-21T13:10:12.176Z,15.37
2023-04-21T13:13:14.808Z,15.72
2023-04-21T13:16:17.683Z,15.39
2023-04-21T13:19:20.146Z,15.28
2023-04-21T13:22:24.097Z,15.12
2023-04-21T13:25:26.932Z,15.29
2023-04-21T13:28:29.920Z,15.65
2023-04-21T13:31:32.752Z,14.78
2023-04-21T13:34:35.732Z,15.79
2023-04-21T13:37:40.243Z,14.65
2023-04-21T13:40:42.838Z,13.80
2023-04-21T13:43:45.488Z,14.34
2023-04-21T13:46:48.141Z,11.93
2023-04-21T13:49:51.502Z,12.52
2023-04-21T13:52:55.365Z,13.88
2023-04-21T13:55:59.336Z,17.00
2023-04-21T13:59:01.924Z,13.38
2023-04-21T14:02:04.809Z,13.34
2023-04-21T14:05:07.973Z,15.35
2023-04-21T14:08:12.076Z,13.23
2023-04-21T14:11:14.682Z,12.45
2023-04-21T14:14:27.690Z,10.91
2023-04-21T14:17:39.782Z,10.84
2023-04-21T14:20:42.460Z,9.68
2023-04-21T14:23:46.596Z,9.96
2023-04-21T14:26:49.230Z,10.63
2023-04-21T14:29:51.712Z,9.94
2023-04-21T14:32:54.157Z,9.59
2023-04-21T14:35:57.072Z,9.74
2023-04-21T14:39:01.026Z,9.69
2023-04-21T14:42:03.702Z,8.95
2023-04-21T14:45:07.263Z,9.95
2023-04-21T14:48:11.764Z,9.46
2023-04-21T14:51:14.355Z,8.50
2023-04-21T14:54:18.296Z,7.66
2023-04-21T14:57:22.087Z,8.33
2023-04-21T15:00:25.800Z,9.08
2023-04-21T15:03:28.641Z,8.52
2023-04-21T15:06:31.687Z,9.02
2023-04-21T15:09:37.377Z,10.77
2023-04-21T15:12:41.886Z,11.13
2023-04-21T15:15:44.874Z,10.92
2023-04-21T15:18:47.668Z,9.73
2023-04-21T15:21:50.239Z,10.50
2023-04-21T15:24:54.787Z,12.90
2023-04-21T15:27:57.552Z,17.81
2023-04-21T15:31:00.227Z,21.86
2023-04-21T15:34:03.112Z,21.06
2023-04-21T15:37:05.679Z,18.32
2023-04-21T15:40:10.828Z,14.43
2023-04-21T15:43:13.497Z,11.42
2023-04-21T15:46:16.273Z,10.67
2023-04-21T15:49:18.996Z,11.08
2023-04-21T15:52:21.623Z,12.09
2023-04-21T15:55:27.969Z,12.79
2023-04-21T15:58:30.567Z,13.25
2023-04-21T16:01:33.269Z,13.43
2023-04-21T16:04:36.515Z,12.62
2023-04-21T16:07:39.850Z,12.25
2023-04-21T16:10:43.769Z,13.48
2023-04-21T16:13:46.551Z,16.70
2023-04-21T16:16:49.127Z,18.21
2023-04-21T16:19:51.592Z,20.49
2023-04-21T16:22:54.324Z,18.73
2023-04-21T16:25:58.171Z,18.36
2023-04-21T16:29:00.705Z,24.09
2023-04-21T16:32:03.345Z,24.25
2023-04-21T16:35:08.295Z,22.38
2023-04-21T16:38:11.178Z,19.81
2023-04-21T16:41:17.181Z,23.16
2023-04-21T16:44:20.731Z,25.00
2023-04-21T16:47:23.430Z,27.79
2023-04-21T16:50:26.213Z,30.82
2023-04-21T16:53:28.900Z,33.62
2023-04-21T16:56:33.354Z,34.57
2023-04-21T16:59:36.101Z,36.34
2023-04-21T17:02:38.828Z,37.57
2023-04-21T17:05:41.655Z,38.44
2023-04-21T17:08:44.372Z,39.55
2023-04-21T17:11:48.506Z,40.02
2023-04-21T17:14:51.205Z,39.85
2023-04-21T17:17:54.087Z,40.07
2023-04-21T17:20:56.734Z,40.16
2023-04-21T17:23:59.520Z,40.72
2023-04-21T17:27:03.650Z,42.29
2023-04-21T17:30:07.770Z,47.83
2023-04-21T17:36:17.810Z,58.05
2023-04-21T17:39:20.478Z,58.54
2023-04-21T17:42:24.503Z,56.00
2023-04-21T17:45:27.147Z,55.63
2023-04-21T17:48:29.887Z,55.61
2023-04-21T17:51:32.625Z,56.65
2023-04-21T17:54:36.237Z,56.03
2023-04-21T17:57:40.561Z,52.24
2023-04-21T18:00:43.347Z,51.75
2023-04-21T18:03:46.876Z,52.36
2023-04-21T18:06:51.105Z,53.72
2023-04-21T18:09:53.705Z,53.22
2023-04-21T18:12:57.636Z,52.09
2023-04-21T18:16:00.646Z,53.91
2023-04-21T18:19:03.302Z,54.71
2023-04-21T18:22:06.033Z,57.04
2023-04-21T18:25:09.443Z,58.98
2023-04-21T18:28:14.238Z,59.11
2023-04-21T18:31:16.945Z,58.93
2023-04-21T18:34:19.682Z,58.96
2023-04-21T18:37:22.336Z,58.95
2023-04-21T18:40:25.079Z,58.42
2023-04-21T18:43:29.185Z,59.64
2023-04-21T18:46:31.753Z,61.47
2023-04-21T18:49:34.522Z,59.89
2023-04-21T18:52:37.120Z,60.57
2023-04-21T18:55:40.432Z,61.00
2023-04-21T18:58:44.661Z,61.29
2023-04-21T19:01:47.623Z,61.53
2023-04-21T19:04:50.339Z,59.94
2023-04-21T19:07:53.088Z,59.63
2023-04-21T19:10:56.091Z,59.93
2023-04-21T19:14:00.145Z,60.36
2023-04-21T19:17:02.999Z,59.78
2023-04-21T19:20:06.806Z,60.02
2023-04-21T19:23:09.623Z,58.28
2023-04-21T19:26:13.308Z,57.95
2023-04-21T19:29:17.824Z,59.11
2023-04-21T19:32:20.840Z,59.06
2023-04-21T19:35:23.744Z,59.51
2023-04-21T19:38:26.924Z,58.25
2023-04-21T19:41:29.799Z,58.38
2023-04-21T19:44:33.881Z,58.33
2023-04-21T19:47:36.700Z,58.35
2023-04-21T19:50:39.596Z,58.82
2023-04-21T19:53:42.592Z,57.79
2023-04-21T19:56:45.514Z,57.12
2023-04-21T19:59:51.795Z,55.77
2023-04-21T20:02:54.742Z,54.67
2023-04-21T20:05:57.575Z,54.67
2023-04-21T20:09:00.181Z,53.13
2023-04-21T20:12:02.901Z,52.15
2023-04-21T20:15:08.416Z,51.37
2023-04-21T20:18:11.547Z,50.43
2023-04-21T20:21:14.212Z,51.71
2023-04-21T20:24:17.264Z,51.44
2023-04-21T20:27:19.926Z,52.91
2023-04-21T20:30:24.371Z,52.57
2023-04-21T20:33:28.075Z,53.35
2023-04-21T20:36:30.692Z,54.10
2023-04-21T20:39:33.671Z,54.68
2023-04-21T20:42:36.562Z,54.14
2023-04-21T20:45:41.293Z,53.94
2023-04-21T20:48:43.992Z,53.83
2023-04-21T20:51:46.676Z,54.22
2023-04-21T20:54:49.204Z,53.93
2023-04-21T20:57:51.785Z,54.01
2023-04-21T21:00:56.277Z,54.75
2023-04-21T21:04:01.003Z,55.22
2023-04-21T21:07:04.120Z,55.79
2023-04-21T21:10:08.106Z,56.07
2023-04-21T21:13:11.008Z,55.93
2023-04-21T21:16:14.996Z,55.56
2023-04-21T21:19:17.614Z,55.13
2023-04-21T21:22:20.181Z,54.95
2023-04-21T21:25:22.909Z,55.24
2023-04-21T21:28:26.224Z,55.42
2023-04-21T21:31:30.680Z,55.87
2023-04-21T21:34:33.272Z,55.51
2023-04-21T21:37:35.902Z,55.38
2023-04-21T21:40:38.559Z,55.57
2023-04-21T21:43:41.184Z,56.14
2023-04-21T21:46:45.531Z,56.56
2023-04-21T21:49:48.066Z,55.80
2023-04-21T21:52:50.785Z,55.36
2023-04-21T21:55:53.406Z,55.13
2023-04-21T21:58:55.976Z,56.09
2023-04-21T22:01:59.844Z,56.25
2023-04-21T22:05:04.440Z,56.43
2023-04-21T22:08:07.259Z,55.91
2023-04-21T22:11:09.862Z,54.92
2023-04-21T22:14:22.697Z,55.08
2023-04-21T22:17:27.711Z,55.51
2023-04-21T22:20:30.205Z,55.79
2023-04-21T22:23:33.124Z,56.21
2023-04-21T22:26:36.245Z,56.31
2023-04-21T22:29:39.042Z,56.43
2023-04-21T22:32:43.258Z,56.83
2023-04-21T22:35:45.944Z,57.02
2023-04-21T22:38:48.929Z,57.81
2023-04-21T22:41:53.140Z,57.56
2023-04-21T22:44:55.821Z,57.84
2023-04-21T22:47:59.819Z,57.75
2023-04-21T22:51:02.429Z,57.90
2023-04-21T22:54:05.134Z,58.49
2023-04-21T22:57:07.923Z,58.05
2023-04-21T23:00:11.805Z,58.87
2023-04-21T23:03:16.033Z,58.90
2023-04-21T23:06:18.860Z,58.66
2023-04-21T23:09:21.386Z,58.90
2023-04-21T23:12:24.019Z,58.51
2023-04-21T23:15:26.848Z,58.33
2023-04-21T23:18:30.875Z,58.16
2023-04-21T23:21:33.520Z,57.82
2023-04-21T23:24:36.028Z,57.80
2023-04-21T23:27:39.721Z,57.60
2023-04-21T23:30:42.266Z,58.17
2023-04-21T23:33:46.169Z,58.82
2023-04-21T23:36:48.735Z,59.68
2023-04-21T23:39:51.433Z,59.69
2023-04-21T23:42:53.998Z,59.33
2023-04-21T23:45:56.619Z,59.83
2023-04-21T23:49:00.576Z,59.48
2023-04-21T23:52:03.196Z,60.40
2023-04-21T23:55:08.192Z,60.76
2023-04-21T23:58:10.764Z,60.75
